createdAt,value
2019-04-30T00:00:50.146Z,78.96
2019-04-30T00:02:01.942Z,78.79
2019-04-30T00:03:22.605Z,78.58
2019-04-30T00:04:37.555Z,78.60
2019-04-30T00:05:39.287Z,78.51
2019-04-30T00:06:45.345Z,78.34
2019-04-30T00:07:50.911Z,78.58
2019-04-30T00:08:57.690Z,78.62
2019-04-30T00:10:02.298Z,78.55
2019-04-30T00:11:10.808Z,78.39
2019-04-30T00:12:15.681Z,78.25
2019-04-30T00:13:21.106Z,78.25
2019-04-30T00:14:32.026Z,78.24
2019-04-30T00:15:31.746Z,78.32
2019-04-30T00:16:39.798Z,78.45
2019-04-30T00:17:42.345Z,78.30
2019-04-30T00:18:58.157Z,78.48
2019-04-30T00:19:55.825Z,78.22
2019-04-30T00:21:00.274Z,78.48
2019-04-30T00:22:05.746Z,78.56
2019-04-30T00:23:10.179Z,78.54
2019-04-30T00:24:15.843Z,78.63
2019-04-30T00:25:26.928Z,78.55
2019-04-30T00:26:26.740Z,78.52
2019-04-30T00:27:31.262Z,78.47
2019-04-30T00:28:39.449Z,78.59
2019-04-30T00:29:41.977Z,78.64
2019-04-30T00:30:47.838Z,78.59
2019-04-30T00:31:58.500Z,78.92
2019-04-30T00:32:59.556Z,78.37
2019-04-30T00:34:05.050Z,78.38
2019-04-30T00:35:11.734Z,78.33
2019-04-30T00:36:17.396Z,78.25
2019-04-30T00:37:22.009Z,78.53
2019-04-30T00:38:29.530Z,78.56
2019-04-30T00:39:32.977Z,78.66
2019-04-30T00:40:37.714Z,78.90
2019-04-30T00:41:44.051Z,78.92
2019-04-30T00:42:48.323Z,79.02
2019-04-30T00:43:55.066Z,79.02
2019-04-30T00:44:59.590Z,79.27
2019-04-30T00:46:05.457Z,79.35
2019-04-30T00:47:10.299Z,79.19
2019-04-30T00:48:19.868Z,79.13
2019-04-30T00:49:23.302Z,79.41
2019-04-30T00:50:29.114Z,79.36
2019-04-30T00:51:35.337Z,79.33
2019-04-30T00:52:39.927Z,79.43
2019-04-30T00:53:51.199Z,79.76
2019-04-30T00:54:50.549Z,79.72
2019-04-30T00:55:55.611Z,79.79
2019-04-30T00:57:06.542Z,79.92
2019-04-30T00:58:07.645Z,80.11
2019-04-30T00:59:12.429Z,80.03
2019-04-30T01:00:25.325Z,80.05
2019-04-30T01:01:25.531Z,80.18
2019-04-30T01:02:37.579Z,80.21
2019-04-30T01:03:49.269Z,80.05
2019-04-30T01:05:00.116Z,80.24
2019-04-30T01:06:00.646Z,79.99
2019-04-30T01:07:08.607Z,80.16
2019-04-30T01:08:12.461Z,80.14
2019-04-30T01:09:16.915Z,80.22
2019-04-30T01:10:24.779Z,80.18
2019-04-30T01:11:28.139Z,80.09
2019-04-30T01:12:38.477Z,80.05
2019-04-30T01:13:41.439Z,80.15
2019-04-30T01:14:45.500Z,80.17
2019-04-30T01:15:52.491Z,80.09
2019-04-30T01:16:56.469Z,80.25
2019-04-30T01:18:00.966Z,80.28
2019-04-30T01:19:12.662Z,80.51
2019-04-30T01:20:12.649Z,80.50
2019-04-30T01:21:18.490Z,80.59
2019-04-30T01:22:28.399Z,80.60
2019-04-30T01:23:29.673Z,80.79
2019-04-30T01:24:34.353Z,80.81
2019-04-30T01:25:38.980Z,80.77
2019-04-30T01:26:43.614Z,81.15
2019-04-30T01:27:49.146Z,80.91
2019-04-30T01:29:00.563Z,80.97
2019-04-30T01:30:01.609Z,80.68
2019-04-30T01:31:08.955Z,80.65
2019-04-30T01:32:19.226Z,80.66
2019-04-30T01:33:20.033Z,80.17
2019-04-30T01:34:24.852Z,80.04
2019-04-30T01:35:32.717Z,79.93
2019-04-30T01:36:35.486Z,80.09
2019-04-30T01:37:39.939Z,80.16
2019-04-30T01:38:44.856Z,79.89
2019-04-30T01:39:50.614Z,79.89
2019-04-30T01:40:55.105Z,80.02
2019-04-30T01:42:02.872Z,80.28
2019-04-30T01:43:06.077Z,80.20
2019-04-30T01:44:12.169Z,80.66
2019-04-30T01:45:18.628Z,80.41
2019-04-30T01:46:23.302Z,80.64
2019-04-30T01:47:29.549Z,80.65
2019-04-30T01:48:34.195Z,80.33
2019-04-30T01:49:42.860Z,80.32
2019-04-30T01:50:44.829Z,80.41
2019-04-30T01:51:52.826Z,80.25
2019-04-30T01:52:55.452Z,80.23
2019-04-30T01:53:59.894Z,80.40
2019-04-30T01:55:04.825Z,80.40
2019-04-30T01:56:16.708Z,80.82
2019-04-30T01:57:22.803Z,80.90
2019-04-30T01:58:33.364Z,81.08
2019-04-30T01:59:55.804Z,80.97
2019-04-30T02:01:01.931Z,81.28
2019-04-30T02:02:06.397Z,81.39
2019-04-30T02:03:11.193Z,81.66
2019-04-30T02:04:15.948Z,81.26
2019-04-30T02:05:20.393Z,81.26
2019-04-30T02:06:24.885Z,80.97
2019-04-30T02:07:29.722Z,81.26
2019-04-30T02:08:34.184Z,81.27
2019-04-30T02:09:38.863Z,81.41
2019-04-30T02:10:43.265Z,81.44
2019-04-30T02:11:48.798Z,81.57
2019-04-30T02:12:53.373Z,81.80
2019-04-30T02:13:59.110Z,81.98
2019-04-30T02:15:04.345Z,82.24
2019-04-30T02:16:08.901Z,82.24
2019-04-30T02:17:13.348Z,82.30
2019-04-30T02:18:19.454Z,82.39
2019-04-30T02:19:24.138Z,82.33
2019-04-30T02:20:28.868Z,82.73
2019-04-30T02:21:33.567Z,82.97
2019-04-30T02:22:38.969Z,82.97
2019-04-30T02:23:44.044Z,83.23
2019-04-30T02:24:48.851Z,83.29
2019-04-30T02:25:53.309Z,83.40
2019-04-30T02:26:59.468Z,83.22
2019-04-30T02:28:04.195Z,83.17
2019-04-30T02:29:09.193Z,83.08
2019-04-30T02:30:14.836Z,83.13
2019-04-30T02:31:22.998Z,83.10
2019-04-30T02:32:25.465Z,83.06
2019-04-30T02:33:31.705Z,83.14
2019-04-30T02:34:42.211Z,83.03
2019-04-30T02:35:54.527Z,83.23
2019-04-30T02:37:06.380Z,83.13
2019-04-30T02:38:20.222Z,82.93
2019-04-30T02:39:24.977Z,83.16
2019-04-30T02:40:31.854Z,83.25
2019-04-30T02:41:41.152Z,83.43
2019-04-30T02:42:44.969Z,83.00
2019-04-30T02:43:52.039Z,83.14
2019-04-30T02:45:03.250Z,83.04
2019-04-30T02:46:06.233Z,83.43
2019-04-30T02:47:13.271Z,83.43
2019-04-30T02:48:20.780Z,83.51
2019-04-30T02:49:30.433Z,83.54
2019-04-30T02:50:35.772Z,83.72
2019-04-30T02:51:41.691Z,83.75
2019-04-30T02:52:47.051Z,83.78
2019-04-30T02:54:03.418Z,83.97
2019-04-30T02:55:11.486Z,84.16
2019-04-30T02:56:19.618Z,84.30
2019-04-30T02:57:23.833Z,84.36
2019-04-30T02:58:29.396Z,84.27
2019-04-30T02:59:34.246Z,84.35
2019-04-30T03:00:39.430Z,84.21
2019-04-30T03:01:44.074Z,84.17
2019-04-30T03:02:50.586Z,84.35
2019-04-30T03:03:54.679Z,84.66
2019-04-30T03:05:00.227Z,84.78
2019-04-30T03:06:04.986Z,84.93
2019-04-30T03:07:09.841Z,84.66
2019-04-30T03:08:14.645Z,84.67
2019-04-30T03:09:20.200Z,84.76
2019-04-30T03:10:25.086Z,84.76
2019-04-30T03:11:30.199Z,84.71
2019-04-30T03:12:34.976Z,85.04
2019-04-30T03:13:42.496Z,85.21
2019-04-30T03:14:45.591Z,84.89
2019-04-30T03:15:50.431Z,84.81
2019-04-30T03:17:00.231Z,84.89
2019-04-30T03:18:06.548Z,84.88
2019-04-30T03:19:19.614Z,85.18
2019-04-30T03:20:36.230Z,85.19
2019-04-30T03:21:56.268Z,85.27
2019-04-30T03:23:02.427Z,85.38
2019-04-30T03:24:10.616Z,85.50
2019-04-30T03:25:14.536Z,85.60
2019-04-30T03:26:20.006Z,85.70
2019-04-30T03:27:25.055Z,85.72
2019-04-30T03:28:30.246Z,85.78
2019-04-30T03:29:34.751Z,85.59
2019-04-30T03:30:42.078Z,85.66
2019-04-30T03:31:45.918Z,85.49
2019-04-30T03:32:56.210Z,85.66
2019-04-30T03:33:56.557Z,85.57
2019-04-30T03:35:03.241Z,85.38
2019-04-30T03:36:11.992Z,85.34
2019-04-30T03:37:13.722Z,85.18
2019-04-30T03:38:20.342Z,85.19
2019-04-30T03:39:24.694Z,85.29
2019-04-30T03:40:30.169Z,85.46
2019-04-30T03:41:34.865Z,85.38
2019-04-30T03:42:39.739Z,85.30
2019-04-30T03:43:44.285Z,85.54
2019-04-30T03:44:49.611Z,85.52
2019-04-30T03:45:54.643Z,85.41
2019-04-30T03:46:59.521Z,85.38
2019-04-30T03:48:04.141Z,85.38
2019-04-30T03:49:12.563Z,85.54
2019-04-30T03:50:15.007Z,85.50
2019-04-30T03:51:19.940Z,85.54
2019-04-30T03:52:24.879Z,85.67
2019-04-30T03:53:29.909Z,85.83
2019-04-30T03:54:34.500Z,85.84
2019-04-30T03:55:39.970Z,85.78
2019-04-30T03:56:49.895Z,85.78
2019-04-30T03:57:52.552Z,85.73
2019-04-30T03:58:57.019Z,85.92
2019-04-30T04:00:01.474Z,85.93
2019-04-30T04:01:23.952Z,85.92
2019-04-30T04:02:42.145Z,86.11
2019-04-30T04:04:04.467Z,86.11
2019-04-30T04:05:14.637Z,86.02
2019-04-30T04:06:29.699Z,86.20
2019-04-30T04:07:53.097Z,86.24
2019-04-30T04:09:00.259Z,86.08
2019-04-30T04:10:19.727Z,86.20
2019-04-30T04:11:25.834Z,85.95
2019-04-30T04:12:30.803Z,85.73
2019-04-30T04:13:40.085Z,85.85
2019-04-30T04:14:44.232Z,86.08
2019-04-30T04:15:49.921Z,86.16
2019-04-30T04:16:54.952Z,86.11
2019-04-30T04:18:00.417Z,86.00
2019-04-30T04:19:05.101Z,85.87
2019-04-30T04:20:10.560Z,85.55
2019-04-30T04:21:17.035Z,85.72
2019-04-30T04:22:22.045Z,85.61
2019-04-30T04:23:32.310Z,85.27
2019-04-30T04:24:32.647Z,85.22
2019-04-30T04:25:39.728Z,85.13
2019-04-30T04:26:43.859Z,85.06
2019-04-30T04:27:50.864Z,85.06
2019-04-30T04:28:54.825Z,84.99
2019-04-30T04:30:01.179Z,85.04
2019-04-30T04:31:09.481Z,84.63
2019-04-30T04:32:13.234Z,84.08
2019-04-30T04:33:19.960Z,83.17
2019-04-30T04:34:23.935Z,82.09
2019-04-30T04:35:29.860Z,81.25
2019-04-30T04:36:34.631Z,81.32
2019-04-30T04:37:39.653Z,81.25
2019-04-30T04:38:44.301Z,81.20
2019-04-30T04:39:49.997Z,81.29
2019-04-30T04:40:54.967Z,81.41
2019-04-30T04:41:59.946Z,81.06
2019-04-30T04:43:10.687Z,81.27
2019-04-30T04:44:15.139Z,81.13
2019-04-30T04:45:19.994Z,81.23
2019-04-30T04:46:24.634Z,80.93
2019-04-30T04:47:30.930Z,80.43
2019-04-30T04:48:35.278Z,80.83
2019-04-30T04:49:39.901Z,81.14
2019-04-30T04:50:44.379Z,81.47
2019-04-30T04:51:49.351Z,81.63
2019-04-30T04:52:53.918Z,81.70
2019-04-30T04:54:00.177Z,81.64
2019-04-30T04:55:06.658Z,81.76
2019-04-30T04:56:11.510Z,81.84
2019-04-30T04:57:19.333Z,82.11
2019-04-30T04:58:22.517Z,81.87
2019-04-30T04:59:26.972Z,81.47
2019-04-30T05:00:31.430Z,81.42
2019-04-30T05:01:35.889Z,81.60
2019-04-30T05:02:49.755Z,82.13
2019-04-30T05:03:54.863Z,81.28
2019-04-30T05:04:59.985Z,80.73
2019-04-30T05:06:04.550Z,80.72
2019-04-30T05:07:09.114Z,80.86
2019-04-30T05:08:13.551Z,80.56
2019-04-30T05:09:19.480Z,80.63
2019-04-30T05:10:24.083Z,80.77
2019-04-30T05:11:29.341Z,80.63
2019-04-30T05:12:37.296Z,80.62
2019-04-30T05:13:41.443Z,80.69
2019-04-30T05:14:46.236Z,80.77
2019-04-30T05:15:51.557Z,79.94
2019-04-30T05:16:56.157Z,79.51
2019-04-30T05:18:00.612Z,79.63
2019-04-30T05:19:05.071Z,79.32
2019-04-30T05:20:16.302Z,79.33
2019-04-30T05:21:26.716Z,78.99
2019-04-30T05:22:31.544Z,78.75
2019-04-30T05:23:36.362Z,78.57
2019-04-30T05:24:40.915Z,78.32
2019-04-30T05:25:45.338Z,78.33
2019-04-30T05:26:49.812Z,78.59
2019-04-30T05:27:54.267Z,78.36
2019-04-30T05:28:59.465Z,78.27
2019-04-30T05:30:09.741Z,77.31
2019-04-30T05:31:15.599Z,77.77
2019-04-30T05:32:20.073Z,78.25
2019-04-30T05:33:25.494Z,78.15
2019-04-30T05:34:30.293Z,77.68
2019-04-30T05:35:34.767Z,77.07
2019-04-30T05:36:39.299Z,76.79
2019-04-30T05:37:43.760Z,77.22
2019-04-30T05:38:48.833Z,76.72
2019-04-30T05:39:54.290Z,76.91
2019-04-30T05:40:59.602Z,76.07
2019-04-30T05:42:05.137Z,76.85
2019-04-30T05:43:11.403Z,77.08
2019-04-30T05:44:15.930Z,76.66
2019-04-30T05:45:21.765Z,75.08
2019-04-30T05:46:26.219Z,75.37
2019-04-30T05:47:31.001Z,75.26
2019-04-30T05:48:35.561Z,74.24
2019-04-30T05:49:40.213Z,74.50
2019-04-30T05:50:44.669Z,73.63
2019-04-30T05:51:55.431Z,73.74
2019-04-30T05:52:56.431Z,73.45
2019-04-30T05:54:01.249Z,73.28
2019-04-30T05:55:08.547Z,73.70
2019-04-30T05:56:13.457Z,74.25
2019-04-30T05:57:19.697Z,73.98
2019-04-30T05:58:24.263Z,73.46
2019-04-30T05:59:29.758Z,73.59
2019-04-30T06:00:34.570Z,73.99
2019-04-30T06:01:39.584Z,73.25
2019-04-30T06:02:44.520Z,73.19
2019-04-30T06:03:49.041Z,72.67
2019-04-30T06:04:53.848Z,72.59
2019-04-30T06:05:58.926Z,73.43
2019-04-30T06:07:05.136Z,73.20
2019-04-30T06:08:11.248Z,72.87
2019-04-30T06:09:31.105Z,71.30
2019-04-30T06:10:39.615Z,72.61
2019-04-30T06:12:01.175Z,72.60
2019-04-30T06:13:09.192Z,72.37
2019-04-30T06:14:32.111Z,71.80
2019-04-30T06:15:50.297Z,71.53
2019-04-30T06:17:05.666Z,71.50
2019-04-30T06:18:13.467Z,70.54
2019-04-30T06:19:16.765Z,71.78
2019-04-30T06:20:21.235Z,70.25
2019-04-30T06:21:26.636Z,69.55
2019-04-30T06:22:31.182Z,70.42
2019-04-30T06:23:35.628Z,70.71
2019-04-30T06:24:40.327Z,69.36
2019-04-30T06:25:56.295Z,70.25
2019-04-30T06:26:51.411Z,70.00
2019-04-30T06:27:56.020Z,70.40
2019-04-30T06:29:00.775Z,69.42
2019-04-30T06:30:06.170Z,69.22
2019-04-30T06:31:10.700Z,69.36
2019-04-30T06:32:18.477Z,68.91
2019-04-30T06:33:21.795Z,68.79
2019-04-30T06:34:26.814Z,68.83
2019-04-30T06:35:31.644Z,69.21
2019-04-30T06:36:38.402Z,67.89
2019-04-30T06:37:42.609Z,68.52
2019-04-30T06:38:48.976Z,67.12
2019-04-30T06:39:53.544Z,67.75
2019-04-30T06:40:59.039Z,67.82
2019-04-30T06:42:06.847Z,66.28
2019-04-30T06:43:09.888Z,65.94
2019-04-30T06:44:14.774Z,66.28
2019-04-30T06:45:19.330Z,66.49
2019-04-30T06:46:23.760Z,66.60
2019-04-30T06:47:33.019Z,65.33
2019-04-30T06:48:35.707Z,65.68
2019-04-30T06:49:40.177Z,64.55
2019-04-30T06:50:44.639Z,64.21
2019-04-30T06:51:49.724Z,64.79
2019-04-30T06:52:58.787Z,64.54
2019-04-30T06:54:00.375Z,63.83
2019-04-30T06:55:06.561Z,63.75
2019-04-30T06:56:11.405Z,64.14
2019-04-30T06:57:15.854Z,63.33
2019-04-30T06:58:20.666Z,62.30
2019-04-30T06:59:25.256Z,61.54
2019-04-30T07:00:40.213Z,62.99
2019-04-30T07:01:45.494Z,62.50
2019-04-30T07:02:49.955Z,62.03
2019-04-30T07:03:56.875Z,59.45
2019-04-30T07:05:00.924Z,58.65
2019-04-30T07:06:05.383Z,57.89
2019-04-30T07:07:09.896Z,59.53
2019-04-30T07:08:39.589Z,57.41
2019-04-30T07:09:58.381Z,57.80
2019-04-30T07:11:20.295Z,56.07
2019-04-30T07:12:42.492Z,55.17
2019-04-30T07:13:51.761Z,55.94
2019-04-30T07:14:54.766Z,54.54
2019-04-30T07:15:59.223Z,54.44
2019-04-30T07:17:04.652Z,53.85
2019-04-30T07:18:09.171Z,54.25
2019-04-30T07:19:13.670Z,53.12
2019-04-30T07:20:19.114Z,53.81
2019-04-30T07:21:24.634Z,55.07
2019-04-30T07:22:39.706Z,53.63
2019-04-30T07:23:39.005Z,51.92
2019-04-30T07:24:45.239Z,52.31
2019-04-30T07:25:51.731Z,52.25
2019-04-30T07:26:59.724Z,50.50
2019-04-30T07:28:02.808Z,50.52
2019-04-30T07:29:09.476Z,51.55
2019-04-30T07:30:13.507Z,51.33
2019-04-30T07:31:19.268Z,51.39
2019-04-30T07:32:23.898Z,49.51
2019-04-30T07:33:29.536Z,49.11
2019-04-30T07:34:37.038Z,49.11
2019-04-30T07:35:40.847Z,48.62
2019-04-30T07:36:49.328Z,48.11
2019-04-30T07:37:54.555Z,49.62
2019-04-30T07:38:59.995Z,48.45
2019-04-30T07:40:05.339Z,49.15
2019-04-30T07:41:10.146Z,49.75
2019-04-30T07:42:14.613Z,47.86
2019-04-30T07:43:20.043Z,47.86
2019-04-30T07:44:33.775Z,49.83
2019-04-30T07:45:32.245Z,49.83
2019-04-30T07:46:41.095Z,47.98
2019-04-30T07:47:43.279Z,49.51
2019-04-30T07:48:49.954Z,48.95
2019-04-30T07:49:55.947Z,47.98
2019-04-30T07:51:00.359Z,47.23
2019-04-30T07:52:05.606Z,46.01
2019-04-30T07:53:11.562Z,46.60
2019-04-30T07:54:16.456Z,46.20
2019-04-30T07:55:21.225Z,45.70
2019-04-30T07:56:29.277Z,46.83
2019-04-30T07:57:32.423Z,46.69
2019-04-30T07:58:39.078Z,47.76
2019-04-30T07:59:43.711Z,45.92
2019-04-30T08:00:49.702Z,45.92
2019-04-30T08:02:06.558Z,45.11
2019-04-30T08:03:05.486Z,46.15
2019-04-30T08:04:29.072Z,44.23
2019-04-30T08:05:34.544Z,44.88
2019-04-30T08:06:39.684Z,45.86
2019-04-30T08:07:44.817Z,43.97
2019-04-30T08:08:50.642Z,44.25
2019-04-30T08:09:55.425Z,42.77
2019-04-30T08:10:59.883Z,43.06
2019-04-30T08:12:04.712Z,43.73
2019-04-30T08:13:14.220Z,44.37
2019-04-30T08:14:15.621Z,44.88
2019-04-30T08:15:20.108Z,42.23
2019-04-30T08:16:24.572Z,41.53
2019-04-30T08:17:29.316Z,42.00
2019-04-30T08:18:33.774Z,42.27
2019-04-30T08:19:38.468Z,41.75
2019-04-30T08:20:44.773Z,40.73
2019-04-30T08:21:49.538Z,42.29
2019-04-30T08:22:54.298Z,41.66
2019-04-30T08:24:01.040Z,41.83
2019-04-30T08:25:06.433Z,39.99
2019-04-30T08:26:10.893Z,39.91
2019-04-30T08:27:15.514Z,41.09
2019-04-30T08:28:20.007Z,40.24
2019-04-30T08:29:24.772Z,40.21
2019-04-30T08:30:30.102Z,38.96
2019-04-30T08:31:34.615Z,40.40
2019-04-30T08:32:39.074Z,38.08
2019-04-30T08:33:43.525Z,37.65
2019-04-30T08:34:49.924Z,38.07
2019-04-30T08:35:54.445Z,39.39
2019-04-30T08:36:59.508Z,40.64
2019-04-30T08:38:04.424Z,37.71
2019-04-30T08:39:09.726Z,39.68
2019-04-30T08:40:14.403Z,38.70
2019-04-30T08:41:19.461Z,38.74
2019-04-30T08:42:31.837Z,38.91
2019-04-30T08:43:30.105Z,39.75
2019-04-30T08:44:34.582Z,38.05
2019-04-30T08:45:39.130Z,38.34
2019-04-30T08:46:43.584Z,38.20
2019-04-30T08:47:49.295Z,37.43
2019-04-30T08:48:53.980Z,38.41
2019-04-30T08:49:59.471Z,37.42
2019-04-30T08:51:04.958Z,37.75
2019-04-30T08:52:10.681Z,38.08
2019-04-30T08:53:26.694Z,38.13
2019-04-30T08:54:22.487Z,38.63
2019-04-30T08:55:26.943Z,37.33
2019-04-30T08:56:31.415Z,37.22
2019-04-30T08:57:35.875Z,38.17
2019-04-30T08:58:40.329Z,38.08
2019-04-30T08:59:44.780Z,38.23
2019-04-30T09:00:49.233Z,37.23
2019-04-30T09:01:54.004Z,37.29
2019-04-30T09:02:59.374Z,36.86
2019-04-30T09:04:03.903Z,38.45
2019-04-30T09:05:10.228Z,36.73
2019-04-30T09:06:16.345Z,36.47
2019-04-30T09:07:20.959Z,38.51
2019-04-30T09:08:25.417Z,36.88
2019-04-30T09:09:30.154Z,39.89
2019-04-30T09:10:34.902Z,41.43
2019-04-30T09:11:51.828Z,38.43
2019-04-30T09:12:45.532Z,37.32
2019-04-30T09:13:50.066Z,37.54
2019-04-30T09:14:54.521Z,35.76
2019-04-30T09:15:59.436Z,35.24
2019-04-30T09:17:04.219Z,35.91
2019-04-30T09:18:12.388Z,39.41
2019-04-30T09:19:15.506Z,38.91
2019-04-30T09:20:19.970Z,35.74
2019-04-30T09:21:24.608Z,38.17
2019-04-30T09:22:30.035Z,37.21
2019-04-30T09:23:45.926Z,35.94
2019-04-30T09:24:40.796Z,37.90
2019-04-30T09:25:45.264Z,38.75
2019-04-30T09:26:49.739Z,37.20
2019-04-30T09:27:54.195Z,37.31
2019-04-30T09:28:59.355Z,36.12
2019-04-30T09:30:10.203Z,36.62
2019-04-30T09:31:13.875Z,37.87
2019-04-30T09:32:19.255Z,37.15
2019-04-30T09:33:24.854Z,36.50
2019-04-30T09:34:29.359Z,36.18
2019-04-30T09:35:33.766Z,38.23
2019-04-30T09:36:39.156Z,35.87
2019-04-30T09:37:43.971Z,37.60
2019-04-30T09:38:49.396Z,39.07
2019-04-30T09:39:54.148Z,37.70
2019-04-30T09:40:59.417Z,39.32
2019-04-30T09:42:04.040Z,36.79
2019-04-30T09:43:08.774Z,36.79
2019-04-30T09:44:13.512Z,35.48
2019-04-30T09:45:18.714Z,36.65
2019-04-30T09:46:27.009Z,38.20
2019-04-30T09:47:29.619Z,36.74
2019-04-30T09:48:34.369Z,36.30
2019-04-30T09:49:41.382Z,36.42
2019-04-30T09:50:45.513Z,35.27
2019-04-30T09:51:50.461Z,35.71
2019-04-30T09:52:55.463Z,36.24
2019-04-30T09:54:03.073Z,36.39
2019-04-30T09:55:06.799Z,37.45
2019-04-30T09:56:11.402Z,38.10
2019-04-30T09:57:15.886Z,36.62
2019-04-30T09:58:20.993Z,35.41
2019-04-30T09:59:25.783Z,36.11
2019-04-30T10:00:30.538Z,37.57
2019-04-30T10:01:35.319Z,35.51
2019-04-30T10:02:39.799Z,37.28
2019-04-30T10:03:44.771Z,35.90
2019-04-30T10:04:50.015Z,37.23
2019-04-30T10:05:55.036Z,37.87
2019-04-30T10:06:59.687Z,38.01
2019-04-30T10:08:04.303Z,37.85
2019-04-30T10:09:11.226Z,35.07
2019-04-30T10:10:18.856Z,36.85
2019-04-30T10:11:27.691Z,34.01
2019-04-30T10:12:32.229Z,37.57
2019-04-30T10:13:36.977Z,35.13
2019-04-30T10:14:41.458Z,35.30
2019-04-30T10:15:50.030Z,36.42
2019-04-30T10:17:04.095Z,36.29
2019-04-30T10:18:09.832Z,34.66
2019-04-30T10:19:15.041Z,34.93
2019-04-30T10:20:22.863Z,35.64
2019-04-30T10:21:29.030Z,33.75
2019-04-30T10:22:33.843Z,34.72
2019-04-30T10:23:39.175Z,33.61
2019-04-30T10:24:43.935Z,34.56
2019-04-30T10:25:48.923Z,35.71
2019-04-30T10:26:53.699Z,36.32
2019-04-30T10:27:59.743Z,37.32
2019-04-30T10:29:06.020Z,36.72
2019-04-30T10:30:13.631Z,35.30
2019-04-30T10:31:18.719Z,35.55
2019-04-30T10:32:24.235Z,33.63
2019-04-30T10:33:28.809Z,34.34
2019-04-30T10:34:34.219Z,34.89
2019-04-30T10:35:38.717Z,35.24
2019-04-30T10:36:43.154Z,35.62
2019-04-30T10:37:48.559Z,33.79
2019-04-30T10:38:53.328Z,33.53
2019-04-30T10:39:59.777Z,35.96
2019-04-30T10:41:04.713Z,35.12
2019-04-30T10:42:09.225Z,34.69
2019-04-30T10:43:13.683Z,35.65
2019-04-30T10:44:18.806Z,34.77
2019-04-30T10:45:23.330Z,33.77
2019-04-30T10:46:28.083Z,34.64
2019-04-30T10:47:32.819Z,34.12
2019-04-30T10:48:37.319Z,34.50
2019-04-30T10:49:41.792Z,34.43
2019-04-30T10:50:46.380Z,33.37
2019-04-30T10:51:51.140Z,35.10
2019-04-30T10:52:55.885Z,33.66
2019-04-30T10:54:00.364Z,33.30
2019-04-30T10:55:06.345Z,34.67
2019-04-30T10:56:10.969Z,34.36
2019-04-30T10:57:15.682Z,32.50
2019-04-30T10:58:20.142Z,33.71
2019-04-30T10:59:24.619Z,33.41
2019-04-30T11:00:40.813Z,33.60
2019-04-30T11:01:45.307Z,31.57
2019-04-30T11:02:50.059Z,32.13
2019-04-30T11:03:54.903Z,33.84
2019-04-30T11:04:59.371Z,34.03
2019-04-30T11:06:03.917Z,32.60
2019-04-30T11:07:08.706Z,31.75
2019-04-30T11:08:13.174Z,32.40
2019-04-30T11:09:17.828Z,31.71
2019-04-30T11:10:22.286Z,32.41
2019-04-30T11:11:28.317Z,30.67
2019-04-30T11:12:33.227Z,33.89
2019-04-30T11:13:38.023Z,31.50
2019-04-30T11:14:42.789Z,30.77
2019-04-30T11:15:49.222Z,31.22
2019-04-30T11:16:54.000Z,31.46
2019-04-30T11:17:59.659Z,31.97
2019-04-30T11:19:04.749Z,31.92
2019-04-30T11:20:10.414Z,32.61
2019-04-30T11:21:15.239Z,31.47
2019-04-30T11:22:20.333Z,31.37
2019-04-30T11:23:25.026Z,32.82
2019-04-30T11:24:36.636Z,31.30
2019-04-30T11:25:37.263Z,32.00
2019-04-30T11:26:43.156Z,30.37
2019-04-30T11:27:50.115Z,30.79
2019-04-30T11:28:54.362Z,31.85
2019-04-30T11:30:03.214Z,32.26
2019-04-30T11:31:13.190Z,30.01
2019-04-30T11:32:19.734Z,31.13
2019-04-30T11:33:24.748Z,30.81
2019-04-30T11:34:29.251Z,31.26
2019-04-30T11:35:33.856Z,31.13
2019-04-30T11:36:38.984Z,30.31
2019-04-30T11:37:43.741Z,30.71
2019-04-30T11:38:48.942Z,31.69
2019-04-30T11:39:54.404Z,30.86
2019-04-30T11:40:59.283Z,30.44
2019-04-30T11:42:03.880Z,30.72
2019-04-30T11:43:08.790Z,33.38
2019-04-30T11:44:13.247Z,30.66
2019-04-30T11:45:20.772Z,31.51
2019-04-30T11:46:28.757Z,31.19
2019-04-30T11:47:33.992Z,31.20
2019-04-30T11:48:38.799Z,30.83
2019-04-30T11:49:44.239Z,28.42
2019-04-30T11:50:49.659Z,29.82
2019-04-30T11:51:55.177Z,30.75
2019-04-30T11:53:14.013Z,28.61
2019-04-30T11:54:05.949Z,28.53
2019-04-30T11:55:12.156Z,32.29
2019-04-30T11:56:16.850Z,30.76
2019-04-30T11:57:33.201Z,29.03
2019-04-30T11:58:38.862Z,28.53
2019-04-30T11:59:47.875Z,27.90
2019-04-30T12:00:52.491Z,28.22
2019-04-30T12:01:58.764Z,28.98
2019-04-30T12:03:04.491Z,31.58
2019-04-30T12:04:09.350Z,28.47
2019-04-30T12:05:14.871Z,28.35
2019-04-30T12:06:19.610Z,28.21
2019-04-30T12:07:41.695Z,27.90
2019-04-30T12:09:02.561Z,30.10
2019-04-30T12:10:16.217Z,29.46
2019-04-30T12:11:22.383Z,29.07
2019-04-30T12:12:28.839Z,28.35
2019-04-30T12:13:33.006Z,29.33
2019-04-30T12:14:39.459Z,28.38
2019-04-30T12:15:44.079Z,29.02
2019-04-30T12:16:50.717Z,27.07
2019-04-30T12:17:54.905Z,25.87
2019-04-30T12:19:00.691Z,27.40
2019-04-30T12:20:11.402Z,28.43
2019-04-30T12:21:15.879Z,26.17
2019-04-30T12:22:20.643Z,25.24
2019-04-30T12:23:25.383Z,27.39
2019-04-30T12:24:30.411Z,26.40
2019-04-30T12:25:34.880Z,26.08
2019-04-30T12:26:39.352Z,27.79
2019-04-30T12:27:43.814Z,25.60
2019-04-30T12:28:48.287Z,26.28
2019-04-30T12:29:52.745Z,26.58
2019-04-30T12:30:58.897Z,30.11
2019-04-30T12:32:03.363Z,27.03
2019-04-30T12:33:09.057Z,25.70
2019-04-30T12:34:13.558Z,25.97
2019-04-30T12:35:18.841Z,27.23
2019-04-30T12:36:23.607Z,25.12
2019-04-30T12:37:29.048Z,26.21
2019-04-30T12:38:33.598Z,26.45
2019-04-30T12:39:39.478Z,26.56
2019-04-30T12:40:50.319Z,24.85
2019-04-30T12:42:02.268Z,25.89
2019-04-30T12:43:07.950Z,26.69
2019-04-30T12:44:12.416Z,25.28
2019-04-30T12:45:19.341Z,25.36
2019-04-30T12:46:23.545Z,25.07
2019-04-30T12:47:29.653Z,25.61
2019-04-30T12:48:35.730Z,25.46
2019-04-30T12:49:50.511Z,26.02
2019-04-30T12:50:59.598Z,26.72
2019-04-30T12:52:11.519Z,24.76
2019-04-30T12:53:33.655Z,24.17
2019-04-30T12:54:39.751Z,25.36
2019-04-30T12:55:55.451Z,25.94
2019-04-30T12:57:13.938Z,25.64
2019-04-30T12:58:20.698Z,24.05
2019-04-30T12:59:28.037Z,22.82
2019-04-30T13:00:32.730Z,25.31
2019-04-30T13:01:39.764Z,24.46
2019-04-30T13:02:43.930Z,24.12
2019-04-30T13:03:58.107Z,23.38
2019-04-30T13:04:55.386Z,24.17
2019-04-30T13:06:01.260Z,23.20
2019-04-30T13:07:06.555Z,23.19
2019-04-30T13:08:12.033Z,21.94
2019-04-30T13:09:20.154Z,23.07
2019-04-30T13:10:23.697Z,24.26
2019-04-30T13:11:30.774Z,24.16
2019-04-30T13:12:35.258Z,25.11
2019-04-30T13:13:41.198Z,24.87
2019-04-30T13:14:52.426Z,22.84
2019-04-30T13:15:52.188Z,23.26
2019-04-30T13:16:56.681Z,23.17
2019-04-30T13:18:01.135Z,23.18
2019-04-30T13:19:48.103Z,24.11
2019-04-30T13:21:05.013Z,23.49
2019-04-30T13:22:11.327Z,23.59
2019-04-30T13:25:01.097Z,23.95
2019-04-30T13:26:13.071Z,22.39
2019-04-30T13:27:19.578Z,23.06
2019-04-30T13:28:35.331Z,24.38
2019-04-30T13:29:47.588Z,26.51
2019-04-30T13:30:52.043Z,25.85
2019-04-30T13:31:58.251Z,24.65
2019-04-30T13:33:04.613Z,23.26
2019-04-30T13:34:26.973Z,22.43
2019-04-30T13:35:31.435Z,23.46
2019-04-30T13:37:19.735Z,23.37
2019-04-30T21:42:09.422Z,58.78
2019-04-30T21:43:13.914Z,58.88
2019-04-30T21:44:18.387Z,58.94
2019-04-30T21:46:53.046Z,59.12
2019-04-30T21:48:03.384Z,58.77
2019-04-30T21:49:08.851Z,58.40
2019-04-30T21:50:13.875Z,58.74
2019-04-30T21:51:19.262Z,59.45
2019-04-30T21:52:24.106Z,60.36
2019-04-30T21:53:29.489Z,60.54
2019-04-30T21:54:34.389Z,60.89
2019-04-30T21:55:39.812Z,60.69
2019-04-30T21:56:44.507Z,60.92
2019-04-30T21:57:49.608Z,61.27
2019-04-30T21:58:55.117Z,61.48
2019-04-30T21:59:59.611Z,61.74
2019-04-30T22:01:11.573Z,61.65
2019-04-30T22:02:17.762Z,61.32
2019-04-30T22:03:22.228Z,61.54
2019-04-30T22:04:27.909Z,61.51
2019-04-30T22:05:32.964Z,60.86
2019-04-30T22:06:39.500Z,60.16
2019-04-30T22:07:45.900Z,60.31
2019-04-30T22:08:50.375Z,60.09
2019-04-30T22:09:55.176Z,60.68
2019-04-30T22:11:00.230Z,61.04
2019-04-30T22:12:04.932Z,61.52
2019-04-30T22:13:09.422Z,60.12
2019-04-30T22:14:14.531Z,59.68
2019-04-30T22:15:19.180Z,60.32
2019-04-30T22:16:26.818Z,60.69
2019-04-30T22:17:31.900Z,60.59
2019-04-30T22:18:58.161Z,60.66
2019-04-30T22:20:02.493Z,60.24
2019-04-30T22:21:08.064Z,60.14